Cruzeta, Brazil
Current Conditions -  °F | °C
As of 1:00 PM on Saturday 20 Dec 2014 (Local Time) from SBKG Reporting Station
Scattered Clouds Scattered Clouds  
Wind Chill: 86°   Ceiling: Unl
Heat Index: 87°   Visibility: 6mi
Dew Point: 64°   Wind: 18mph
Humidity: 48%   Direction: 80°E
Pressure: 29.97"   Gusts: NA
Location:  6.41°S, 36.79°W
Report Text: SBKG 201600Z 08016KT 060V120 9999 SCT045 30/18 Q1015
Loading
Personal Weather Stations






























Interactive Weather Map New forecast layout! Learn more

10-Day Weather Forecast

Advertisements
Track Severe Weather on mobile